createdAt,value
2023-01-30T00:01:32.632Z,99414.05
2023-01-30T00:04:00.691Z,99413.20
2023-01-30T00:06:29.165Z,99412.52
2023-01-30T00:08:57.171Z,99413.73
2023-01-30T00:11:25.402Z,99412.02
2023-01-30T00:13:54.483Z,99413.38
2023-01-30T00:16:22.750Z,99413.55
2023-01-30T00:18:52.210Z,99410.64
2023-01-30T00:21:20.478Z,99405.48
2023-01-30T00:23:56.114Z,99402.37
2023-01-30T00:26:24.254Z,99393.45
2023-01-30T00:28:53.023Z,99391.72
2023-01-30T00:31:23.473Z,99394.30
2023-01-30T00:33:51.872Z,99389.48
2023-01-30T00:36:19.968Z,99391.89
2023-01-30T00:38:48.319Z,99387.77
2023-01-30T00:41:19.019Z,99377.64
2023-01-30T00:44:22.842Z,99376.44
2023-01-30T00:47:05.958Z,99378.32
2023-01-30T00:49:36.393Z,99378.14
2023-01-30T00:52:04.919Z,99370.23
2023-01-30T00:54:33.828Z,99370.92
2023-01-30T00:57:02.504Z,99364.56
2023-01-30T00:59:30.608Z,99361.31
2023-01-30T01:01:58.868Z,99358.73
2023-01-30T01:04:26.992Z,99351.34
2023-01-30T01:06:55.418Z,99342.08
2023-01-30T01:09:23.558Z,99345.52
2023-01-30T01:11:51.979Z,99344.48
2023-01-30T01:14:21.130Z,99337.27
2023-01-30T01:16:49.857Z,99331.58
2023-01-30T01:19:18.168Z,99331.22
2023-01-30T01:21:46.589Z,99333.44
2023-01-30T01:24:15.401Z,99331.52
2023-01-30T01:26:43.734Z,99326.20
2023-01-30T01:29:16.009Z,99320.86
2023-01-30T01:31:44.721Z,99318.48
2023-01-30T01:34:13.112Z,99316.91
2023-01-30T01:36:53.362Z,99318.60
2023-01-30T01:39:22.863Z,99321.02
2023-01-30T01:41:52.168Z,99322.23
2023-01-30T01:44:20.678Z,99321.18
2023-01-30T01:46:50.239Z,99319.11
2023-01-30T01:49:23.562Z,99321.20
2023-01-30T01:52:08.848Z,99323.95
2023-01-30T01:54:47.420Z,99326.52
2023-01-30T01:57:31.207Z,99323.59
2023-01-30T02:00:10.101Z,99322.73
2023-01-30T02:02:42.221Z,99317.43
2023-01-30T02:05:11.499Z,99314.18
2023-01-30T02:07:48.317Z,99310.05
2023-01-30T02:10:21.916Z,99306.45
2023-01-30T02:12:50.801Z,99307.65
2023-01-30T02:15:19.656Z,99304.23
2023-01-30T02:17:48.657Z,99300.80
2023-01-30T02:20:32.492Z,99297.90
2023-01-30T02:23:38.516Z,99291.02
2023-01-30T02:26:45.563Z,99282.77
2023-01-30T02:29:26.401Z,99275.58
2023-01-30T02:32:00.435Z,99271.11
2023-01-30T02:34:50.723Z,99269.55
2023-01-30T02:37:41.685Z,99265.27
2023-01-30T02:40:23.553Z,99266.30
2023-01-30T02:43:12.950Z,99259.61
2023-01-30T02:46:11.870Z,99257.55
2023-01-30T02:49:09.251Z,99256.34
2023-01-30T02:51:40.363Z,99250.67
2023-01-30T02:54:10.513Z,99246.20
2023-01-30T02:56:53.139Z,99243.80
2023-01-30T02:59:36.341Z,99240.71
2023-01-30T03:02:23.916Z,99241.58
2023-01-30T03:05:12.051Z,99238.84
2023-01-30T03:08:08.509Z,99233.85
2023-01-30T03:10:59.114Z,99235.39
2023-01-30T03:13:55.711Z,99230.24
2023-01-30T03:16:27.414Z,99224.73
2023-01-30T03:18:56.333Z,99224.73
2023-01-30T03:21:24.447Z,99223.35
2023-01-30T03:23:53.440Z,99219.74
2023-01-30T03:26:25.047Z,99218.90
2023-01-30T03:28:53.461Z,99216.83
2023-01-30T03:31:22.290Z,99216.30
2023-01-30T03:33:50.750Z,99214.06
2023-01-30T03:36:19.379Z,99214.73
2023-01-30T03:38:48.097Z,99216.11
2023-01-30T03:41:16.659Z,99216.28
2023-01-30T03:43:45.144Z,99214.40
2023-01-30T03:46:13.652Z,99213.38
2023-01-30T03:48:41.893Z,99213.03
2023-01-30T03:51:12.468Z,99204.95
2023-01-30T03:53:42.071Z,99197.05
2023-01-30T03:56:11.205Z,99192.42
2023-01-30T03:58:40.532Z,99190.02
2023-01-30T04:01:19.710Z,99193.77
2023-01-30T04:03:47.931Z,99193.10
2023-01-30T04:06:16.433Z,99183.65
2023-01-30T04:08:45.843Z,99182.45
2023-01-30T04:11:22.802Z,99180.89
2023-01-30T04:13:50.894Z,99179.85
2023-01-30T04:16:23.667Z,99181.91
2023-01-30T04:19:11.267Z,99182.60
2023-01-30T04:21:40.605Z,99181.41
2023-01-30T04:24:09.098Z,99179.67
2023-01-30T04:26:37.409Z,99179.83
2023-01-30T04:29:06.844Z,99180.46
2023-01-30T04:31:35.576Z,99180.47
2023-01-30T04:34:07.479Z,99181.70
2023-01-30T04:36:37.187Z,99178.79
2023-01-30T04:39:05.436Z,99177.06
2023-01-30T04:41:33.891Z,99178.09
2023-01-30T04:44:02.834Z,99176.91
2023-01-30T04:46:41.944Z,99172.29
2023-01-30T04:49:10.925Z,99170.23
2023-01-30T04:51:39.379Z,99169.55
2023-01-30T04:54:07.954Z,99165.27
2023-01-30T04:56:37.619Z,99160.10
2023-01-30T04:59:06.776Z,99160.09
2023-01-30T05:01:39.600Z,99158.02
2023-01-30T05:04:07.875Z,99150.48
2023-01-30T05:06:36.792Z,99144.12
2023-01-30T05:09:05.650Z,99138.63
2023-01-30T05:11:34.587Z,99130.55
2023-01-30T05:14:05.603Z,99128.48
2023-01-30T05:16:34.166Z,99132.09
2023-01-30T05:19:03.329Z,99127.27
2023-01-30T05:21:33.897Z,99128.81
2023-01-30T05:24:05.389Z,99126.22
2023-01-30T05:26:33.553Z,99127.77
2023-01-30T05:29:02.884Z,99127.42
2023-01-30T05:31:31.201Z,99127.42
2023-01-30T05:34:01.994Z,99123.48
2023-01-30T05:36:30.775Z,99122.63
2023-01-30T05:38:58.910Z,99112.67
2023-01-30T05:41:29.913Z,99104.95
2023-01-30T05:44:00.651Z,99099.13
2023-01-30T05:46:29.210Z,99098.07
2023-01-30T05:49:03.410Z,99096.17
2023-01-30T05:51:31.834Z,99094.45
2023-01-30T05:54:04.176Z,99092.23
2023-01-30T05:56:33.792Z,99088.13
2023-01-30T05:59:02.151Z,99087.62
2023-01-30T06:01:36.115Z,99087.28
2023-01-30T06:04:07.204Z,99086.25
2023-01-30T06:06:35.306Z,99084.02
2023-01-30T06:09:04.021Z,99077.66
2023-01-30T06:11:33.352Z,99077.33
2023-01-30T06:14:04.680Z,99074.06
2023-01-30T06:16:35.866Z,99077.31
2023-01-30T06:19:08.360Z,99078.16
2023-01-30T06:21:39.058Z,99076.30
2023-01-30T06:24:07.717Z,99078.35
2023-01-30T06:26:35.860Z,99072.52
2023-01-30T06:29:05.723Z,99071.67
2023-01-30T06:31:40.003Z,99069.27
2023-01-30T06:34:14.158Z,99066.00
2023-01-30T06:36:44.217Z,99066.69
2023-01-30T06:39:15.803Z,99062.73
2023-01-30T06:41:46.365Z,99061.20
2023-01-30T06:44:15.403Z,99057.08
2023-01-30T06:46:46.232Z,99053.80
2023-01-30T06:49:14.577Z,99051.91
2023-01-30T06:51:45.709Z,99055.69
2023-01-30T06:54:15.996Z,99055.68
2023-01-30T06:56:50.620Z,99051.92
2023-01-30T06:59:24.136Z,99058.45
2023-01-30T07:01:57.309Z,99049.69
2023-01-30T07:04:31.136Z,99051.76
2023-01-30T07:07:05.273Z,99046.95
2023-01-30T07:09:38.899Z,99046.43
2023-01-30T07:12:07.160Z,99041.62
2023-01-30T07:14:35.245Z,99043.00
2023-01-30T07:17:05.645Z,99043.17
2023-01-30T07:19:35.514Z,99045.40
2023-01-30T07:22:03.689Z,99042.82
2023-01-30T07:24:32.720Z,99041.96
2023-01-30T07:27:00.884Z,99038.01
2023-01-30T07:29:29.381Z,99038.19
2023-01-30T07:32:00.907Z,99031.15
2023-01-30T07:34:29.518Z,99022.03
2023-01-30T07:36:57.685Z,99016.54
2023-01-30T07:39:32.639Z,99016.02
2023-01-30T07:42:02.811Z,99011.05
2023-01-30T07:44:34.486Z,99011.39
2023-01-30T07:47:02.891Z,99003.12
2023-01-30T07:49:31.212Z,99000.88
2023-01-30T07:51:59.513Z,98999.84
2023-01-30T07:54:27.669Z,98991.55
2023-01-30T07:56:56.063Z,98992.23
2023-01-30T07:59:24.319Z,98990.86
2023-01-30T08:01:52.598Z,98989.31
2023-01-30T08:04:25.732Z,98984.81
2023-01-30T08:06:54.269Z,98975.54
2023-01-30T08:09:25.473Z,98971.39
2023-01-30T08:11:54.664Z,98968.98
2023-01-30T08:14:26.614Z,98964.33
2023-01-30T08:16:56.913Z,98964.17
2023-01-30T08:19:25.793Z,98959.35
2023-01-30T08:21:55.176Z,98953.63
2023-01-30T08:24:23.333Z,98948.60
2023-01-30T08:26:54.042Z,98940.83
2023-01-30T08:29:24.816Z,98941.34
2023-01-30T08:31:57.996Z,98932.57
2023-01-30T08:34:29.492Z,98928.95
2023-01-30T08:37:02.201Z,98931.67
2023-01-30T08:39:31.150Z,98925.63
2023-01-30T08:42:01.841Z,98923.88
2023-01-30T08:44:32.820Z,98922.45
2023-01-30T08:47:00.981Z,98914.52
2023-01-30T08:49:31.550Z,98909.48
2023-01-30T08:52:00.008Z,98907.73
2023-01-30T08:54:28.293Z,98909.62
2023-01-30T08:56:59.358Z,98905.32
2023-01-30T08:59:29.084Z,98903.41
2023-01-30T09:02:00.105Z,98899.91
2023-01-30T09:04:34.805Z,98897.67
2023-01-30T09:07:05.015Z,98895.10
2023-01-30T09:09:33.887Z,98889.86
2023-01-30T09:12:07.228Z,98888.23
2023-01-30T09:14:35.783Z,98879.98
2023-01-30T09:17:04.248Z,98875.52
2023-01-30T09:19:37.314Z,98872.42
2023-01-30T09:22:08.983Z,98869.54
2023-01-30T09:24:37.124Z,98868.68
2023-01-30T09:27:05.402Z,98864.55
2023-01-30T09:29:33.581Z,98861.28
2023-01-30T09:32:01.848Z,98853.92
2023-01-30T09:34:30.349Z,98851.02
2023-01-30T09:37:05.324Z,98851.87
2023-01-30T09:39:33.523Z,98842.42
2023-01-30T09:42:06.216Z,98832.26
2023-01-30T09:44:53.443Z,98825.73
2023-01-30T09:47:24.332Z,98828.84
2023-01-30T09:50:18.903Z,98824.25
2023-01-30T09:53:02.012Z,98817.96
2023-01-30T09:55:34.436Z,98819.58
2023-01-30T09:58:25.200Z,98813.95
2023-01-30T10:04:06.230Z,98807.73
2023-01-30T10:06:42.928Z,98801.72
2023-01-30T10:12:44.210Z,98789.11
2023-01-30T10:15:45.856Z,98783.59
2023-01-30T10:18:40.377Z,98777.02
2023-01-30T10:21:22.814Z,98774.98
2023-01-30T10:24:03.994Z,98766.25
2023-01-30T10:26:34.241Z,98760.93
2023-01-30T10:29:10.645Z,98760.21
2023-01-30T10:34:50.905Z,98741.04
2023-01-30T10:37:23.261Z,98734.48
2023-01-30T10:40:15.016Z,98728.13
2023-01-30T10:42:59.802Z,98723.11
2023-01-30T10:46:00.435Z,98710.55
2023-01-30T10:48:46.017Z,98699.73
2023-01-30T10:51:47.921Z,98696.44
2023-01-30T10:54:39.138Z,98693.54
2023-01-30T10:57:32.429Z,98688.15
2023-01-30T11:03:28.650Z,98679.40
2023-01-30T11:06:01.484Z,98672.84
2023-01-30T11:08:32.092Z,98667.11
2023-01-30T11:11:00.993Z,98657.58
2023-01-30T11:13:33.591Z,98655.30
2023-01-30T11:16:06.709Z,98650.61
2023-01-30T11:21:43.859Z,98642.81
2023-01-30T11:24:19.671Z,98636.10
2023-01-30T11:26:53.510Z,98632.46
2023-01-30T11:29:31.488Z,98622.48
2023-01-30T11:32:06.029Z,98616.93
2023-01-30T11:34:34.334Z,98617.05
2023-01-30T11:37:37.465Z,98606.80
2023-01-30T11:40:19.025Z,98601.41
2023-01-30T11:42:53.123Z,98593.02
2023-01-30T11:45:21.292Z,98588.04
2023-01-30T11:48:04.840Z,98579.93
2023-01-30T11:53:35.988Z,98574.58
2023-01-30T11:56:16.149Z,98570.95
2023-01-30T12:01:34.543Z,98572.19
2023-01-30T12:04:12.146Z,98569.73
2023-01-30T12:09:36.070Z,98557.63
2023-01-30T12:12:28.581Z,98557.98
2023-01-30T12:15:20.924Z,98552.47
2023-01-30T12:21:00.907Z,98548.83
2023-01-30T12:23:41.166Z,98546.23
2023-01-30T12:26:18.950Z,98539.28
2023-01-30T12:29:02.614Z,98535.95
2023-01-30T12:31:36.035Z,98529.85
2023-01-30T12:34:04.348Z,98528.18
2023-01-30T12:36:59.602Z,98525.51
2023-01-30T12:39:33.591Z,98521.34
2023-01-30T12:42:11.779Z,98521.14
2023-01-30T12:44:56.654Z,98516.82
2023-01-30T12:47:35.115Z,98508.88
2023-01-30T12:50:37.197Z,98512.10
2023-01-30T12:53:20.534Z,98506.80
2023-01-30T12:56:05.397Z,98499.23
2023-01-30T12:58:38.483Z,98503.38
2023-01-30T13:01:48.308Z,98506.30
2023-01-30T13:04:35.789Z,98511.75
2023-01-30T13:07:16.751Z,98512.58
2023-01-30T13:09:57.629Z,98505.85
2023-01-30T13:12:33.084Z,98504.68
2023-01-30T13:15:11.593Z,98504.69
2023-01-30T13:18:17.289Z,98506.36
2023-01-30T13:21:00.509Z,98501.57
2023-01-30T13:23:56.514Z,98496.83
2023-01-30T13:26:27.271Z,98493.58
2023-01-30T13:29:00.410Z,98483.96
2023-01-30T13:31:30.695Z,98478.23
2023-01-30T13:34:31.763Z,98478.70
2023-01-30T13:37:13.543Z,98474.52
2023-01-30T13:40:17.513Z,98470.84
2023-01-30T13:42:53.814Z,98470.80
2023-01-30T13:45:25.282Z,98467.88
2023-01-30T13:47:56.811Z,98466.50
2023-01-30T13:50:47.318Z,98462.29
2023-01-30T13:53:26.023Z,98456.52
2023-01-30T13:56:27.184Z,98453.96
2023-01-30T13:59:30.827Z,98449.16
2023-01-30T14:02:09.551Z,98446.41
2023-01-30T14:04:40.960Z,98444.05
2023-01-30T14:07:12.103Z,98440.26
2023-01-30T14:09:44.897Z,98437.00
2023-01-30T14:12:26.136Z,98437.16
2023-01-30T14:15:06.502Z,98439.55
2023-01-30T14:17:35.272Z,98435.60
2023-01-30T14:20:17.660Z,98431.02
2023-01-30T14:22:56.043Z,98429.19
2023-01-30T14:25:30.714Z,98424.64
2023-01-30T14:28:02.001Z,98423.32
2023-01-30T14:30:47.931Z,98420.73
2023-01-30T14:33:19.406Z,98424.35
2023-01-30T14:35:48.745Z,98422.46
2023-01-30T14:38:20.151Z,98424.05
2023-01-30T14:41:09.688Z,98415.92
2023-01-30T14:43:42.967Z,98413.02
2023-01-30T14:46:22.128Z,98414.92
2023-01-30T14:49:05.326Z,98410.29
2023-01-30T14:51:39.745Z,98402.08
2023-01-30T14:54:23.455Z,98403.75
2023-01-30T14:57:01.238Z,98401.84
2023-01-30T14:59:36.360Z,98401.05
2023-01-30T15:02:12.327Z,98403.30
2023-01-30T15:04:56.358Z,98398.00
2023-01-30T15:08:05.363Z,98401.27
2023-01-30T15:10:55.995Z,98399.72
2023-01-30T15:13:52.638Z,98396.27
2023-01-30T15:16:53.273Z,98390.81
2023-01-30T15:19:32.514Z,98391.67
2023-01-30T15:22:24.031Z,98386.03
2023-01-30T15:25:21.234Z,98388.80
2023-01-30T15:28:01.611Z,98388.66
2023-01-30T15:30:57.397Z,98390.73
2023-01-30T15:33:32.083Z,98391.14
2023-01-30T15:36:01.810Z,98398.57
2023-01-30T15:38:32.163Z,98400.63
2023-01-30T15:41:07.014Z,98401.94
2023-01-30T15:43:48.386Z,98395.52
2023-01-30T15:46:19.544Z,98394.27
2023-01-30T15:48:54.736Z,98396.13
2023-01-30T15:51:27.400Z,98395.58
2023-01-30T15:53:56.256Z,98389.69
2023-01-30T15:56:26.747Z,98387.97
2023-01-30T15:58:54.825Z,98387.48
2023-01-30T16:01:23.070Z,98384.92
2023-01-30T16:03:53.367Z,98384.04
2023-01-30T16:06:35.193Z,98384.75
2023-01-30T16:09:08.306Z,98388.38
2023-01-30T16:11:43.194Z,98387.13
2023-01-30T16:14:17.958Z,98381.75
2023-01-30T16:16:49.367Z,98382.80
2023-01-30T16:19:26.566Z,98382.14
2023-01-30T16:21:58.246Z,98384.36
2023-01-30T16:24:32.217Z,98386.95
2023-01-30T16:27:03.675Z,98384.74
2023-01-30T16:29:36.929Z,98379.05
2023-01-30T16:32:17.629Z,98376.46
2023-01-30T16:34:47.970Z,98374.07
2023-01-30T16:37:20.628Z,98370.84
2023-01-30T16:40:14.001Z,98373.11
2023-01-30T16:42:42.409Z,98367.27
2023-01-30T16:45:37.995Z,98367.64
2023-01-30T16:48:24.653Z,98367.17
2023-01-30T16:50:58.930Z,98367.06
2023-01-30T16:53:30.737Z,98369.78
2023-01-30T16:56:15.253Z,98373.04
2023-01-30T16:58:50.154Z,98369.27
2023-01-30T17:01:18.596Z,98368.09
2023-01-30T17:03:52.294Z,98364.13
2023-01-30T17:06:34.361Z,98364.16
2023-01-30T17:09:05.091Z,98363.63
2023-01-30T17:11:41.256Z,98356.40
2023-01-30T17:14:26.137Z,98353.27
2023-01-30T17:17:10.724Z,98353.96
2023-01-30T17:19:39.075Z,98352.81
2023-01-30T17:22:19.311Z,98353.15
2023-01-30T17:24:47.443Z,98348.35
2023-01-30T17:27:15.502Z,98346.09
2023-01-30T17:29:45.745Z,98342.98
2023-01-30T17:32:14.225Z,98344.02
2023-01-30T17:34:43.880Z,98342.33
2023-01-30T17:37:16.729Z,98340.09
2023-01-30T17:39:44.776Z,98333.20
2023-01-30T17:42:13.984Z,98335.47
2023-01-30T17:44:42.428Z,98333.10
2023-01-30T17:47:11.618Z,98327.98
2023-01-30T17:49:40.028Z,98332.17
2023-01-30T17:52:08.398Z,98325.35
2023-01-30T17:54:36.456Z,98325.70
2023-01-30T17:57:05.908Z,98330.69
2023-01-30T17:59:34.678Z,98332.05
2023-01-30T18:02:03.014Z,98336.48
2023-01-30T18:04:31.156Z,98338.84
2023-01-30T18:07:03.731Z,98338.46
2023-01-30T18:09:32.101Z,98334.49
2023-01-30T18:12:00.511Z,98327.91
2023-01-30T18:14:28.975Z,98324.70
2023-01-30T18:17:00.302Z,98323.70
2023-01-30T18:19:29.803Z,98325.61
2023-01-30T18:21:58.573Z,98327.83
2023-01-30T18:24:26.827Z,98326.80
2023-01-30T18:26:55.970Z,98322.33
2023-01-30T18:29:24.097Z,98323.33
2023-01-30T18:31:52.711Z,98327.68
2023-01-30T18:34:21.178Z,98329.24
2023-01-30T18:36:49.202Z,98326.81
2023-01-30T18:39:20.339Z,98323.52
2023-01-30T18:41:48.415Z,98320.61
2023-01-30T18:44:16.571Z,98316.16
2023-01-30T18:46:45.124Z,98319.03
2023-01-30T18:49:13.834Z,98315.30
2023-01-30T18:51:45.735Z,98315.66
2023-01-30T18:54:20.932Z,98312.23
2023-01-30T18:56:52.281Z,98312.73
2023-01-30T18:59:20.483Z,98310.03
2023-01-30T19:01:48.799Z,98307.77
2023-01-30T19:04:17.905Z,98302.21
2023-01-30T19:06:46.073Z,98298.33
2023-01-30T19:09:15.308Z,98298.20
2023-01-30T19:12:02.240Z,98299.57
2023-01-30T19:14:30.481Z,98300.89
2023-01-30T19:16:58.748Z,98298.48
2023-01-30T19:19:27.392Z,98298.15
2023-01-30T19:21:55.535Z,98293.55
2023-01-30T19:24:25.090Z,98290.36
2023-01-30T19:26:53.408Z,98292.29
2023-01-30T19:29:23.292Z,98288.73
2023-01-30T19:31:52.032Z,98292.38
2023-01-30T19:34:21.169Z,98292.08
2023-01-30T19:36:49.383Z,98292.29
2023-01-30T19:39:17.824Z,98296.95
2023-01-30T19:41:50.171Z,98295.75
2023-01-30T19:44:21.110Z,98289.92
2023-01-30T19:46:50.711Z,98289.95
2023-01-30T19:49:19.032Z,98290.01
2023-01-30T19:51:47.224Z,98288.66
2023-01-30T19:54:16.255Z,98289.02
2023-01-30T19:56:48.489Z,98290.60
2023-01-30T19:59:16.841Z,98286.30
2023-01-30T20:01:50.154Z,98288.86
2023-01-30T20:04:18.454Z,98292.63
2023-01-30T20:06:49.769Z,98290.38
2023-01-30T20:09:19.350Z,98292.12
2023-01-30T20:11:47.734Z,98297.09
2023-01-30T20:14:18.817Z,98292.49
2023-01-30T20:16:47.534Z,98290.08
2023-01-30T20:19:16.782Z,98289.13
2023-01-30T20:21:45.600Z,98290.52
2023-01-30T20:24:17.475Z,98292.23
2023-01-30T20:26:48.357Z,98291.09
2023-01-30T20:29:18.106Z,98289.28
2023-01-30T20:31:49.948Z,98282.65
2023-01-30T20:34:19.030Z,98281.36
2023-01-30T20:36:47.666Z,98286.55
2023-01-30T20:39:17.321Z,98285.07
2023-01-30T20:41:46.060Z,98293.31
2023-01-30T20:44:14.700Z,98290.09
2023-01-30T20:46:44.950Z,98291.14
2023-01-30T20:49:15.066Z,98291.29
2023-01-30T20:51:46.474Z,98297.80
2023-01-30T20:54:14.867Z,98294.05
2023-01-30T20:56:44.744Z,98299.77
2023-01-30T20:59:15.240Z,98292.95
2023-01-30T21:01:45.721Z,98296.20
2023-01-30T21:04:15.227Z,98296.20
2023-01-30T21:06:45.686Z,98298.62
2023-01-30T21:09:20.540Z,98296.08
2023-01-30T21:11:48.994Z,98296.60
2023-01-30T21:14:18.192Z,98297.98
2023-01-30T21:16:46.667Z,98296.09
2023-01-30T21:19:16.556Z,98295.40
2023-01-30T21:21:51.002Z,98292.98
2023-01-30T21:24:24.658Z,98289.88
2023-01-30T21:26:53.282Z,98281.30
2023-01-30T21:29:23.319Z,98281.13
2023-01-30T21:31:52.196Z,98279.77
2023-01-30T21:34:20.471Z,98278.72
2023-01-30T21:37:08.774Z,98279.75
2023-01-30T21:39:56.809Z,98282.48
2023-01-30T21:42:43.631Z,98281.61
2023-01-30T21:45:11.760Z,98275.95
2023-01-30T21:47:40.338Z,98276.13
2023-01-30T21:50:12.065Z,98277.52
2023-01-30T21:52:40.420Z,98268.10
2023-01-30T21:55:09.631Z,98271.20
2023-01-30T21:57:38.039Z,98268.64
2023-01-30T22:00:06.680Z,98267.67
2023-01-30T22:02:35.258Z,98276.42
2023-01-30T22:05:03.859Z,98271.25
2023-01-30T22:07:32.871Z,98266.45
2023-01-30T22:10:03.980Z,98266.27
2023-01-30T22:12:32.814Z,98262.48
2023-01-30T22:15:01.595Z,98267.23
2023-01-30T22:17:30.083Z,98261.08
2023-01-30T22:19:58.377Z,98256.45
2023-01-30T22:22:26.528Z,98254.90
2023-01-30T22:24:54.870Z,98260.57
2023-01-30T22:27:23.236Z,98259.49
2023-01-30T22:29:51.954Z,98256.22
2023-01-30T22:32:23.182Z,98259.80
2023-01-30T22:34:51.909Z,98255.48
2023-01-30T22:37:20.047Z,98258.87
2023-01-30T22:39:48.061Z,98257.30
2023-01-30T22:42:16.760Z,98256.78
2023-01-30T22:44:44.868Z,98256.98
2023-01-30T22:47:13.012Z,98256.80
2023-01-30T22:49:45.258Z,98249.73
2023-01-30T22:52:13.321Z,98251.46
2023-01-30T22:54:41.665Z,98250.10
2023-01-30T22:57:10.113Z,98251.87
2023-01-30T22:59:38.295Z,98249.31
2023-01-30T23:02:10.385Z,98249.50
2023-01-30T23:04:39.109Z,98250.55
2023-01-30T23:07:07.551Z,98251.91
2023-01-30T23:09:36.735Z,98251.39
2023-01-30T23:12:24.696Z,98248.13
2023-01-30T23:14:53.269Z,98246.72
2023-01-30T23:17:40.282Z,98255.60
2023-01-30T23:20:09.706Z,98247.35
2023-01-30T23:22:37.960Z,98249.58
2023-01-30T23:25:06.784Z,98250.07
2023-01-30T23:27:35.524Z,98247.34
2023-01-30T23:30:04.676Z,98246.81
2023-01-30T23:32:32.938Z,98247.15
2023-01-30T23:35:01.871Z,98250.73
2023-01-30T23:37:50.522Z,98247.13
2023-01-30T23:40:18.684Z,98243.19
2023-01-30T23:42:47.280Z,98241.13
2023-01-30T23:45:15.454Z,98245.08
2023-01-30T23:47:43.734Z,98247.14
2023-01-30T23:50:11.795Z,98246.06
2023-01-30T23:52:40.069Z,98251.69
2023-01-30T23:55:09.297Z,98255.45
2023-01-30T23:57:38.602Z,98252.89
